Airfield :







YOU CAN JOIN US ON...

 
LOGIN :

Register | Disclaimer

   EN    FR    IT 

 









Legend :    VFR   Marginal VFR   IFR   Intensive IFR   Very Intensive IFR
Visi :
Ceiling :
>= 8 km
>= 3000ft
5 to 8 km
1000 to 3000 ft
1500m to 5 km
500 to 1000 ft
800 to 1500m
200 to 500 ft
< 800m
< 200 ft
Symbols :   Thunderstorms  Fog  Heavy snow  Heavy precipitations  Wind > 20 kt







- Airport Elevation : 489 ft


KHUL - Houlton International

CURRENT METAR :
  • 172253Z AUTO 00000KT 10SM CLR M23/M26 A3030 RMK AO2 SLP279 T12331256 TSNO

EXPIRED METARs :
  • 172153Z AUTO 00000KT 10SM CLR M20/M24 A3028 RMK AO2 SLP270 T12001239 TSNO
  • 172053Z AUTO 29003KT 10SM CLR M16/M24 A3028 RMK AO2 SLP269 T11561244 51009 TSNO
  • 171953Z AUTO 33006KT 10SM CLR M15/M24 A3028 RMK AO2 SLP267 T11501244 TSNO

TAF KHUL
Valid from the 17 at 18:00 until the 18 at 18:00 UTC


171720Z 1718/1818 30007KT P6SM SKC
FM180500 18003KT P6SM SCT090
FM180800 16004KT P6SM OVC050
FM181300 17006KT 2SM -SN OVC012
KZBW FIR / North America



MET'MAP, your aeronautical weather chart ! - Copyright ORBIFLY December 2007 - Disclaimer

ORBIFLY MET'MAP TEAM :

Programming & Development : Alexandra Zaïnal
Concept & Development : Baudouin d'Aumeries
Co-Development & Prog : Marc-Olivier Méhu
Technical & hardware support : Manuel Goepfert

Contact : metmap@orbifly.com




SOURCES & CREDITS :

   NOAA